Pandora, Ohio
Current Conditions -  °F | °C
As of 9:53 PM on Wednesday 26 Nov 2014 (Local Time) from KFDY Reporting Station
Overcast Overcast  
Wind Chill: 32°   Ceiling: 3700
Heat Index: 32°   Visibility: 10mi
Dew Point: 25°   Wind: 3mph
Humidity: 75%   Direction: 360°N
Pressure: 30.07"   Gusts: NA
Location:  40.95°N, 83.96°W
Report Text: KFDY 270253Z AUTO 36003KT 10SM OVC037 00/M04 A3007 RMK AO2 SLP187 T00001039 53004
Loading
Personal Weather Stations






























Interactive Weather Map New forecast layout! Learn more

10-Day Weather Forecast

Advertisements
Track Severe Weather on mobile